地図

経路データ

SID SEASON NUMBER BASIN SUBBASIN NAME ISO_TIME NATURE LAT LON WMO_WIND WMO_PRES WMO_AGENCY TRACK_TYPE DIST2LAND LANDFALL IFLAG USA_AGENCY USA_ATCF_ID USA_LAT USA_LON USA_RECORD USA_STATUS USA_WIND USA_PRES USA_SSHS USA_R34_NE USA_R34_SE USA_R34_SW USA_R34_NW USA_R50_NE USA_R50_SE USA_R50_SW USA_R50_NW USA_R64_NE USA_R64_SE USA_R64_SW USA_R64_NW USA_POCI USA_ROCI USA_RMW USA_EYE TOKYO_LAT TOKYO_LON TOKYO_GRADE TOKYO_WIND TOKYO_PRES TOKYO_R50_DIR TOKYO_R50_LONG TOKYO_R50_SHORT TOKYO_R30_DIR TOKYO_R30_LONG TOKYO_R30_SHORT TOKYO_LAND CMA_LAT CMA_LON CMA_CAT CMA_WIND CMA_PRES HKO_LAT HKO_LON HKO_CAT HKO_WIND HKO_PRES NEWDELHI_LAT NEWDELHI_LON NEWDELHI_GRADE NEWDELHI_WIND NEWDELHI_PRES NEWDELHI_CI NEWDELHI_DP NEWDELHI_POCI REUNION_LAT REUNION_LON REUNION_TYPE REUNION_WIND REUNION_PRES REUNION_TNUM REUNION_CI REUNION_RMW REUNION_R34_NE REUNION_R34_SE REUNION_R34_SW REUNION_R34_NW REUNION_R50_NE REUNION_R50_SE REUNION_R50_SW REUNION_R50_NW REUNION_R64_NE REUNION_R64_SE REUNION_R64_SW REUNION_R64_NW BOM_LAT BOM_LON BOM_TYPE BOM_WIND BOM_PRES BOM_TNUM BOM_CI BOM_RMW BOM_R34_NE BOM_R34_SE BOM_R34_SW BOM_R34_NW BOM_R50_NE BOM_R50_SE BOM_R50_SW BOM_R50_NW BOM_R64_NE BOM_R64_SE BOM_R64_SW BOM_R64_NW BOM_ROCI BOM_POCI BOM_EYE BOM_POS_METHOD BOM_PRES_METHOD NADI_LAT NADI_LON NADI_CAT NADI_WIND NADI_PRES WELLINGTON_LAT WELLINGTON_LON WELLINGTON_WIND WELLINGTON_PRES DS824_LAT DS824_LON DS824_STAGE DS824_WIND DS824_PRES TD9636_LAT TD9636_LON TD9636_STAGE TD9636_WIND TD9636_PRES TD9635_LAT TD9635_LON TD9635_WIND TD9635_PRES TD9635_ROCI NEUMANN_LAT NEUMANN_LON NEUMANN_CLASS NEUMANN_WIND NEUMANN_PRES MLC_LAT MLC_LON MLC_CLASS MLC_WIND MLC_PRES USA_GUST BOM_GUST BOM_GUST_PER REUNION_GUST REUNION_GUST_PER USA_SEAHGT USA_SEARAD_NE USA_SEARAD_SE USA_SEARAD_SW USA_SEARAD_NW STORM_SPEED STORM_DIR
1918001S12070 1918 2 SI MM NOT_NAMED 1918-01-01 06:00:00 NR -11.6000 69.6000 spur-split 1588 1543 __________O___ -1 -11.6000 69.6000 7 9 208
1918001S12070 1918 2 SI MM NOT_NAMED 1918-01-01 09:00:00 NR -12.0049 69.3834 spur-split 1543 1499 __________P___ -1 -12.0049 69.3834 7 9 207
1918001S12070 1918 2 SI MM NOT_NAMED 1918-01-01 12:00:00 NR -12.4077 69.1732 spur-split 1499 1455 __________P___ -1 -12.4077 69.1732 7 9 206
1918001S12070 1918 2 SI MM NOT_NAMED 1918-01-01 15:00:00 NR -12.8067 68.9764 spur-split 1455 1411 __________P___ -1 -12.8067 68.9764 7 9 205
1918001S12070 1918 2 SI MM NOT_NAMED 1918-01-01 18:00:00 NR -13.2000 68.8000 spur-split 1411 1377 __________O___ -1 -13.2000 68.8000 7 8 202
1918001S12070 1918 2 SI MM NOT_NAMED 1918-01-01 21:00:00 NR -13.5861 68.6474 spur-split 1368 1341 __________P___ -1 -13.5861 68.6474 7 8 201
1918001S12070 1918 2 SI MM NOT_NAMED 1918-01-02 00:00:00 NR -13.9648 68.5070 spur-split 1335 1308 __________P___ -1 -13.9648 68.5070 7 8 200
1918001S12070 1918 2 SI MM NOT_NAMED 1918-01-02 03:00:00 NR -14.3361 68.3630 spur-split 1308 1267 __________P___ -1 -14.3361 68.3630 7 8 202
1918001S12070 1918 2 SI MM NOT_NAMED 1918-01-02 06:00:00 NR -14.7000 68.2000 spur-split 1267 1231 __________O___ -1 -14.7000 68.2000 7 8 207
1918001S12070 1918 2 SI MM NOT_NAMED 1918-01-02 09:00:00 NR -15.0451 67.9924 spur-split 1231 1191 __________P___ -1 -15.0451 67.9924 7 8 212
1918001S12070 1918 2 SI MM NOT_NAMED 1918-01-02 12:00:00 NR -15.3851 67.7648 spur-split 1191 1147 __________P___ -1 -15.3851 67.7648 7 8 213
1918001S12070 1918 2 SI MM NOT_NAMED 1918-01-02 15:00:00 NR -15.7326 67.5298 spur-split 1147 1107 __________P___ -1 -15.7326 67.5298 7 8 212
1918001S12070 1918 2 SI MM NOT_NAMED 1918-01-02 18:00:00 NR -16.1000 67.3000 spur-split 1107 1069 __________O___ -1 -16.1000 67.3000 7 9 209
1918001S12070 1918 2 SI MM NOT_NAMED 1918-01-02 21:00:00 NR -16.5034 67.0926 spur-split 1069 1031 __________P___ -1 -16.5034 67.0926 7 9 205
1918001S12070 1918 2 SI MM NOT_NAMED 1918-01-03 00:00:00 NR -16.9274 66.8922 spur-split 1031 994 __________P___ -1 -16.9274 66.8922 7 9 204
1918001S12070 1918 2 SI MM NOT_NAMED 1918-01-03 03:00:00 NR -17.3627 66.6957 spur-split 990 956 __________P___ -1 -17.3627 66.6957 7 10 203
1918001S12070 1918 2 SI MM NOT_NAMED 1918-01-03 06:00:00 NR -17.8000 66.5000 spur-split 956 922 __________O___ -1 -17.8000 66.5000 7 10 204
1918001S12070 1918 2 SI MM NOT_NAMED 1918-01-03 09:00:00 NR -18.2290 66.2958 spur-split 922 890 __________P___ -1 -18.2290 66.2958 7 9 204
1918001S12070 1918 2 SI MM NOT_NAMED 1918-01-03 12:00:00 NR -18.6574 66.0923 spur-split 888 858 __________P___ -1 -18.6574 66.0923 7 9 204
1918001S12070 1918 2 SI MM NOT_NAMED 1918-01-03 15:00:00 NR -19.0822 65.8926 spur-split 858 830 __________P___ -1 -19.0822 65.8926 7 9 204
1918001S12070 1918 2 SI MM NOT_NAMED 1918-01-03 18:00:00 NR -19.5000 65.7000 spur-split 830 805 __________O___ -1 -19.5000 65.7000 7 9 204
1918001S12070 1918 2 SI MM NOT_NAMED 1918-01-03 21:00:00 NR -19.8828 65.5132 spur-split 805 782 __________P___ -1 -19.8828 65.5132 7 8 204
1918001S12070 1918 2 SI MM NOT_NAMED 1918-01-04 00:00:00 NR -20.2625 65.3343 spur-split 782 771 __________P___ -1 -20.2625 65.3343 7 8 203
1918001S12070 1918 2 SI MM NOT_NAMED 1918-01-04 03:00:00 NR -20.6609 65.1632 spur-split 771 753 __________P___ -1 -20.6609 65.1632 7 9 201
1918001S12070 1918 2 SI MM NOT_NAMED 1918-01-04 06:00:00 NR -21.1000 65.0000 spur-split 754 741 __________O___ -1 -21.1000 65.0000 7 10 198
1918001S12070 1918 2 SI MM NOT_NAMED 1918-01-04 09:00:00 NR -21.5988 64.8346 spur-split 741 737 __________P___ -1 -21.5988 64.8346 7 11 196
1918001S12070 1918 2 SI MM NOT_NAMED 1918-01-04 12:00:00 NR -22.1401 64.6775 spur-split 742 738 __________P___ -1 -22.1401 64.6775 7 12 194
1918001S12070 1918 2 SI MM NOT_NAMED 1918-01-04 15:00:00 NR -22.7113 64.5315 spur-split 743 743 __________P___ -1 -22.7113 64.5315 7 12 193
1918001S12070 1918 2 SI MM NOT_NAMED 1918-01-04 18:00:00 NR -23.3000 64.4000 spur-split 758 758 __________O___ -1 -23.3000 64.4000 7 12 191
1918001S12070 1918 2 SI MM NOT_NAMED 1918-01-04 21:00:00 NR -23.8956 64.2849 spur-split 778 778 __________P___ -1 -23.8956 64.2849 7 12 189
1918001S12070 1918 2 SI MM NOT_NAMED 1918-01-05 00:00:00 NR -24.4949 64.1829 spur-split 803 803 __________P___ -1 -24.4949 64.1829 7 12 188
1918001S12070 1918 2 SI MM NOT_NAMED 1918-01-05 03:00:00 NR -25.0969 64.0895 spur-split 833 833 __________P___ -1 -25.0969 64.0895 7 12 188
1918001S12070 1918 2 SI MM NOT_NAMED 1918-01-05 06:00:00 NR -25.7000 64.0000 spur-split 867 __________O___ -1 -25.7000 64.0000 7 12 187

IBTrACS Databaseについて

本データベースは、米国NOAAが公開する1842年以降の世界の熱帯低気圧のベストトラックデータアーカイブInternational Best Track Archive for Climate Stewardship (IBTrACS)を、ウェブで閲覧しやすい形式に変換したものです。

最終更新日:2021-10-08